createdAt,value
2023-12-30T00:02:17.322Z,77.12
2023-12-30T00:04:43.863Z,76.85
2023-12-30T00:07:10.618Z,76.82
2023-12-30T00:09:37.142Z,77.06
2023-12-30T00:12:04.263Z,77.15
2023-12-30T00:14:30.741Z,77.09
2023-12-30T00:16:57.215Z,77.36
2023-12-30T00:19:23.748Z,77.54
2023-12-30T00:21:50.325Z,76.90
2023-12-30T00:24:17.637Z,77.00
2023-12-30T00:26:44.075Z,76.61
2023-12-30T00:29:12.938Z,76.61
2023-12-30T00:31:39.564Z,76.33
2023-12-30T00:34:06.136Z,76.01
2023-12-30T00:36:32.573Z,76.01
2023-12-30T00:38:59.001Z,76.10
2023-12-30T00:41:26.495Z,76.28
2023-12-30T00:43:53.055Z,75.94
2023-12-30T00:46:22.981Z,75.76
2023-12-30T00:48:56.830Z,75.12
2023-12-30T00:51:24.662Z,75.52
2023-12-30T00:53:51.168Z,74.97
2023-12-30T00:56:17.715Z,74.21
2023-12-30T00:58:44.477Z,74.69
2023-12-30T01:01:11.051Z,74.08
2023-12-30T01:03:38.071Z,74.16
2023-12-30T01:06:04.718Z,74.44
2023-12-30T01:08:31.325Z,74.54
2023-12-30T01:10:57.844Z,74.46
2023-12-30T01:13:24.417Z,74.60
2023-12-30T01:15:50.945Z,74.55
2023-12-30T01:18:17.495Z,73.83
2023-12-30T01:20:44.114Z,73.96
2023-12-30T01:23:10.581Z,73.67
2023-12-30T01:25:39.440Z,73.78
2023-12-30T01:28:08.799Z,73.51
2023-12-30T01:30:37.917Z,73.47
2023-12-30T01:33:05.512Z,73.28
2023-12-30T01:35:32.591Z,73.16
2023-12-30T01:37:59.029Z,73.49
2023-12-30T01:40:28.613Z,73.25
2023-12-30T01:42:55.152Z,73.42
2023-12-30T01:45:21.716Z,73.24
2023-12-30T01:47:48.221Z,73.57
2023-12-30T01:50:14.837Z,73.74
2023-12-30T01:52:41.387Z,73.87
2023-12-30T01:55:09.119Z,73.58
2023-12-30T01:57:35.819Z,73.56
2023-12-30T02:00:02.699Z,73.77
2023-12-30T02:02:29.634Z,73.70
2023-12-30T02:04:56.636Z,73.69
2023-12-30T02:07:23.179Z,73.85
2023-12-30T02:09:50.309Z,73.71
2023-12-30T02:12:16.849Z,73.83
2023-12-30T02:14:43.334Z,74.01
2023-12-30T02:17:09.936Z,74.15
2023-12-30T02:19:37.063Z,73.84
2023-12-30T02:22:03.808Z,74.01
2023-12-30T02:24:30.342Z,73.86
2023-12-30T02:26:56.921Z,74.15
2023-12-30T02:29:23.372Z,73.62
2023-12-30T02:31:50.036Z,74.00
2023-12-30T02:34:18.915Z,74.16
2023-12-30T02:36:46.264Z,73.81
2023-12-30T02:39:12.968Z,73.52
2023-12-30T02:41:39.625Z,73.15
2023-12-30T02:44:06.285Z,73.18
2023-12-30T02:46:33.010Z,73.14
2023-12-30T02:49:04.176Z,72.95
2023-12-30T02:51:30.901Z,72.86
2023-12-30T02:53:57.625Z,72.94
2023-12-30T02:56:27.760Z,72.94
2023-12-30T02:58:57.207Z,73.23
2023-12-30T03:01:28.768Z,72.84
2023-12-30T03:03:57.080Z,72.67
2023-12-30T03:06:23.671Z,73.03
2023-12-30T03:08:50.636Z,73.28
2023-12-30T03:11:17.313Z,73.70
2023-12-30T03:13:43.982Z,73.57
2023-12-30T03:16:17.494Z,73.35
2023-12-30T03:18:44.940Z,73.60
2023-12-30T03:21:15.028Z,73.44
2023-12-30T03:23:41.792Z,73.33
2023-12-30T03:26:11.931Z,73.56
2023-12-30T03:28:38.594Z,73.73
2023-12-30T03:31:06.461Z,73.88
2023-12-30T03:33:32.949Z,73.87
2023-12-30T03:35:59.989Z,74.00
2023-12-30T03:38:26.476Z,74.17
2023-12-30T03:40:52.945Z,74.50
2023-12-30T03:43:19.365Z,75.18
2023-12-30T03:45:45.819Z,74.86
2023-12-30T03:48:12.552Z,75.32
2023-12-30T03:50:39.061Z,75.47
2023-12-30T03:53:06.420Z,75.45
2023-12-30T03:55:33.103Z,75.57
2023-12-30T03:57:59.840Z,75.35
2023-12-30T04:00:26.353Z,75.41
2023-12-30T04:02:52.857Z,75.71
2023-12-30T04:05:19.499Z,75.37
2023-12-30T04:07:46.451Z,75.43
2023-12-30T04:10:14.451Z,75.38
2023-12-30T04:12:40.999Z,75.57
2023-12-30T04:15:09.142Z,75.65
2023-12-30T04:17:35.609Z,75.68
2023-12-30T04:20:02.455Z,75.60
2023-12-30T04:22:29.880Z,75.43
2023-12-30T04:24:58.701Z,75.65
2023-12-30T04:27:25.322Z,75.27
2023-12-30T04:29:52.134Z,75.30
2023-12-30T04:32:21.946Z,75.24
2023-12-30T04:34:50.218Z,74.91
2023-12-30T04:37:17.612Z,74.91
2023-12-30T04:39:44.157Z,74.94
2023-12-30T04:42:10.918Z,75.09
2023-12-30T04:44:37.438Z,74.53
2023-12-30T04:47:04.017Z,74.78
2023-12-30T04:49:30.592Z,74.48
2023-12-30T04:51:57.188Z,74.49
2023-12-30T04:54:23.718Z,74.30
2023-12-30T04:56:50.815Z,74.27
2023-12-30T04:59:17.339Z,74.10
2023-12-30T05:01:43.838Z,73.95
2023-12-30T05:04:10.830Z,74.24
2023-12-30T05:06:37.947Z,74.19
2023-12-30T05:09:05.567Z,74.13
2023-12-30T05:11:32.009Z,74.44
2023-12-30T05:13:58.511Z,74.63
2023-12-30T05:16:24.999Z,74.76
2023-12-30T05:18:51.567Z,74.93
2023-12-30T05:21:18.945Z,75.35
2023-12-30T05:23:45.676Z,75.46
2023-12-30T05:26:15.413Z,75.64
2023-12-30T05:28:42.077Z,75.62
2023-12-30T05:31:08.686Z,75.59
2023-12-30T05:33:35.442Z,75.82
2023-12-30T05:36:02.064Z,75.72
2023-12-30T05:38:28.499Z,75.51
2023-12-30T05:40:54.999Z,75.48
2023-12-30T05:43:23.040Z,75.63
2023-12-30T05:45:50.615Z,75.47
2023-12-30T05:48:17.590Z,74.82
2023-12-30T05:50:44.171Z,74.81
2023-12-30T05:53:12.195Z,74.61
2023-12-30T05:55:39.740Z,74.88
2023-12-30T05:58:06.391Z,74.85
2023-12-30T06:00:32.938Z,74.53
2023-12-30T06:02:59.542Z,74.75
2023-12-30T06:05:27.010Z,74.57
2023-12-30T06:07:53.812Z,74.58
2023-12-30T06:10:20.671Z,74.66
2023-12-30T06:12:47.163Z,74.79
2023-12-30T06:15:13.754Z,75.23
2023-12-30T06:17:40.473Z,75.50
2023-12-30T06:20:09.453Z,75.59
2023-12-30T06:22:36.254Z,75.55
2023-12-30T06:25:04.740Z,75.63
2023-12-30T06:27:31.213Z,75.06
2023-12-30T06:29:57.640Z,75.51
2023-12-30T06:32:24.069Z,75.08
2023-12-30T06:34:50.564Z,75.04
2023-12-30T06:37:17.110Z,75.10
2023-12-30T06:39:44.667Z,74.33
2023-12-30T06:42:11.186Z,74.34
2023-12-30T06:44:37.648Z,73.82
2023-12-30T06:47:06.255Z,73.98
2023-12-30T06:49:32.865Z,74.11
2023-12-30T06:51:59.418Z,73.91
2023-12-30T06:54:26.883Z,73.91
2023-12-30T06:56:54.567Z,74.27
2023-12-30T06:59:21.358Z,73.84
2023-12-30T07:01:47.877Z,74.38
2023-12-30T07:04:15.459Z,74.14
2023-12-30T07:06:42.095Z,74.49
2023-12-30T07:09:08.547Z,74.31
2023-12-30T07:11:35.284Z,74.84
2023-12-30T07:14:01.821Z,74.48
2023-12-30T07:16:28.374Z,74.36
2023-12-30T07:18:55.104Z,74.65
2023-12-30T07:21:21.735Z,74.77
2023-12-30T07:23:48.266Z,75.19
2023-12-30T07:26:14.850Z,75.46
2023-12-30T07:28:41.377Z,75.69
2023-12-30T07:31:08.011Z,76.15
2023-12-30T07:33:36.724Z,76.10
2023-12-30T07:36:05.239Z,76.20
2023-12-30T07:38:32.033Z,76.40
2023-12-30T07:40:58.478Z,76.24
2023-12-30T07:43:25.579Z,76.38
2023-12-30T07:45:52.270Z,76.72
2023-12-30T07:48:18.898Z,76.30
2023-12-30T07:50:45.387Z,76.47
2023-12-30T07:53:12.135Z,76.89
2023-12-30T07:55:38.776Z,76.96
2023-12-30T07:58:05.369Z,76.85
2023-12-30T08:00:32.286Z,77.13
2023-12-30T08:02:58.773Z,77.19
2023-12-30T08:05:25.282Z,77.42
2023-12-30T08:07:51.807Z,77.64
2023-12-30T08:10:19.459Z,77.86
2023-12-30T08:12:45.895Z,78.10
2023-12-30T08:15:12.484Z,78.44
2023-12-30T08:17:39.234Z,78.67
2023-12-30T08:20:06.622Z,78.78
2023-12-30T08:22:33.659Z,78.78
2023-12-30T08:25:00.520Z,79.09
2023-12-30T08:27:27.178Z,79.18
2023-12-30T08:29:53.713Z,79.47
2023-12-30T08:32:20.194Z,79.45
2023-12-30T08:34:46.751Z,79.74
2023-12-30T08:37:13.299Z,79.63
2023-12-30T08:39:39.903Z,80.05
2023-12-30T08:42:06.929Z,80.21
2023-12-30T08:44:33.533Z,80.55
2023-12-30T08:47:00.090Z,80.46
2023-12-30T08:49:26.595Z,80.39
2023-12-30T08:51:53.166Z,80.97
2023-12-30T08:54:19.879Z,81.19
2023-12-30T08:56:46.482Z,81.60
2023-12-30T08:59:12.934Z,81.98
2023-12-30T09:01:39.520Z,82.41
2023-12-30T09:04:06.118Z,82.39
2023-12-30T09:06:32.584Z,82.58
2023-12-30T09:08:59.007Z,83.05
2023-12-30T09:11:25.478Z,83.60
2023-12-30T09:13:54.478Z,83.67
2023-12-30T09:16:22.107Z,83.69
2023-12-30T09:18:48.778Z,83.19
2023-12-30T09:21:15.524Z,83.28
2023-12-30T09:23:42.399Z,83.11
2023-12-30T09:26:09.251Z,83.51
2023-12-30T09:28:36.059Z,83.70
2023-12-30T09:31:02.858Z,83.67
2023-12-30T09:33:29.552Z,83.89
2023-12-30T09:35:56.335Z,84.05
2023-12-30T09:38:25.678Z,84.23
2023-12-30T09:40:53.532Z,84.62
2023-12-30T09:43:24.088Z,84.75
2023-12-30T09:45:52.394Z,84.79
2023-12-30T09:48:26.282Z,85.08
2023-12-30T09:50:54.472Z,85.08
2023-12-30T09:53:23.734Z,84.92
2023-12-30T09:55:54.194Z,84.81
2023-12-30T09:58:22.688Z,84.63
2023-12-30T10:00:49.712Z,84.61
2023-12-30T10:03:19.465Z,84.46
2023-12-30T10:05:46.334Z,84.28
2023-12-30T10:08:13.050Z,83.90
2023-12-30T10:10:47.926Z,83.87
2023-12-30T10:13:16.236Z,84.16
2023-12-30T10:15:45.592Z,83.94
2023-12-30T10:18:14.138Z,83.88
2023-12-30T10:20:42.824Z,84.25
2023-12-30T10:23:09.436Z,84.31
2023-12-30T10:25:36.370Z,84.67
2023-12-30T10:28:03.491Z,84.53
2023-12-30T10:30:31.739Z,85.02
2023-12-30T10:33:08.261Z,85.25
2023-12-30T10:35:35.278Z,85.47
2023-12-30T10:38:05.374Z,85.51
2023-12-30T10:40:32.313Z,85.55
2023-12-30T10:42:58.769Z,85.33
2023-12-30T10:45:25.327Z,85.60
2023-12-30T10:47:52.633Z,85.41
2023-12-30T10:50:19.544Z,85.48
2023-12-30T10:52:52.895Z,85.92
2023-12-30T10:55:20.589Z,85.84
2023-12-30T10:57:54.897Z,85.68
2023-12-30T11:00:21.758Z,86.05
2023-12-30T11:02:51.291Z,85.80
2023-12-30T11:05:40.073Z,85.90
2023-12-30T11:08:06.721Z,85.79
2023-12-30T11:10:34.581Z,85.61
2023-12-30T11:13:01.295Z,85.49
2023-12-30T11:15:32.105Z,85.44
2023-12-30T11:17:59.719Z,85.13
2023-12-30T11:20:33.816Z,85.31
2023-12-30T11:23:05.235Z,85.27
2023-12-30T11:25:48.310Z,85.26
2023-12-30T11:28:18.144Z,85.02
2023-12-30T11:30:47.283Z,84.91
2023-12-30T11:33:15.221Z,84.90
2023-12-30T11:35:41.936Z,84.42
2023-12-30T11:38:12.248Z,84.43
2023-12-30T11:40:50.573Z,84.30
2023-12-30T11:43:17.562Z,84.71
2023-12-30T11:45:44.020Z,84.53
2023-12-30T11:48:10.710Z,84.31
2023-12-30T11:50:37.189Z,84.23
2023-12-30T11:53:04.387Z,84.46
2023-12-30T11:55:31.140Z,84.45
2023-12-30T11:57:57.723Z,84.46
2023-12-30T12:00:27.251Z,84.54
2023-12-30T12:02:59.028Z,84.41
2023-12-30T12:05:25.557Z,84.58
2023-12-30T12:07:52.033Z,84.59
2023-12-30T12:10:19.219Z,84.91
2023-12-30T12:12:46.953Z,85.05
2023-12-30T12:15:14.346Z,85.20
2023-12-30T12:17:42.197Z,85.38
2023-12-30T12:20:15.264Z,85.69
2023-12-30T12:22:50.142Z,85.93
2023-12-30T12:25:17.036Z,86.21
2023-12-30T12:27:43.518Z,86.52
2023-12-30T12:30:13.963Z,86.85
2023-12-30T12:32:41.763Z,86.88
2023-12-30T12:35:08.672Z,87.76
2023-12-30T12:37:37.078Z,87.80
2023-12-30T12:40:05.974Z,87.72
2023-12-30T12:42:34.284Z,87.94
2023-12-30T12:45:00.853Z,87.88
2023-12-30T12:47:27.851Z,88.02
2023-12-30T12:50:02.823Z,88.12
2023-12-30T12:52:31.442Z,88.70
2023-12-30T12:55:09.789Z,88.70
2023-12-30T12:57:37.127Z,89.04
2023-12-30T13:00:09.145Z,88.86
2023-12-30T13:02:36.337Z,89.13
2023-12-30T13:05:03.542Z,89.27
2023-12-30T13:07:33.388Z,89.27
2023-12-30T13:10:22.065Z,89.47
2023-12-30T13:12:57.601Z,89.24
2023-12-30T13:15:26.197Z,89.37
2023-12-30T13:17:55.106Z,89.45
2023-12-30T13:20:21.817Z,89.08
2023-12-30T13:23:07.570Z,89.29
2023-12-30T13:25:41.071Z,89.13
2023-12-30T13:28:07.742Z,89.14
2023-12-30T13:30:35.605Z,89.18
2023-12-30T13:33:05.577Z,89.26
2023-12-30T13:35:41.768Z,89.25
2023-12-30T13:38:13.714Z,88.91
2023-12-30T13:40:42.508Z,88.72
2023-12-30T13:43:10.729Z,88.76
2023-12-30T13:45:42.876Z,88.73
2023-12-30T13:48:15.362Z,88.63
2023-12-30T13:50:53.490Z,88.55
2023-12-30T13:53:22.318Z,88.43
2023-12-30T13:55:49.169Z,88.11
2023-12-30T13:58:15.949Z,88.21
2023-12-30T14:00:43.837Z,87.93
2023-12-30T14:03:10.743Z,87.74
2023-12-30T14:05:42.017Z,87.44
2023-12-30T14:08:27.271Z,87.62
2023-12-30T14:10:55.275Z,87.56
2023-12-30T14:13:24.124Z,87.46
2023-12-30T14:15:52.478Z,87.16
2023-12-30T14:18:19.352Z,87.25
2023-12-30T14:20:47.291Z,87.20
2023-12-30T14:23:13.861Z,86.72
2023-12-30T14:25:42.130Z,86.73
2023-12-30T14:28:08.996Z,86.93
2023-12-30T14:30:36.035Z,86.75
2023-12-30T14:33:02.971Z,86.66
2023-12-30T14:35:29.788Z,86.58
2023-12-30T14:37:56.311Z,86.51
2023-12-30T14:40:23.473Z,86.35
2023-12-30T14:42:51.893Z,86.35
2023-12-30T14:45:20.402Z,86.30
2023-12-30T14:47:47.571Z,86.08
2023-12-30T14:50:14.515Z,85.86
2023-12-30T14:52:41.626Z,85.87
2023-12-30T14:55:10.910Z,85.71
2023-12-30T14:57:41.421Z,85.78
2023-12-30T15:00:15.404Z,85.95
2023-12-30T15:02:43.032Z,85.78
2023-12-30T15:05:15.658Z,85.39
2023-12-30T15:07:44.946Z,85.10
2023-12-30T15:10:14.312Z,85.32
2023-12-30T15:12:42.409Z,85.19
2023-12-30T15:15:09.376Z,84.94
2023-12-30T15:17:36.118Z,85.04
2023-12-30T15:20:03.195Z,85.10
2023-12-30T15:22:31.076Z,84.92
2023-12-30T15:24:58.186Z,84.93
2023-12-30T15:27:24.946Z,84.70
2023-12-30T15:29:51.584Z,84.41
2023-12-30T15:32:18.188Z,84.46
2023-12-30T15:34:45.010Z,84.64
2023-12-30T15:37:15.083Z,84.75
2023-12-30T15:39:42.064Z,84.70
2023-12-30T15:42:09.279Z,84.92
2023-12-30T15:44:39.388Z,84.93
2023-12-30T15:47:08.294Z,84.71
2023-12-30T15:49:35.527Z,85.07
2023-12-30T15:52:02.310Z,85.12
2023-12-30T15:54:28.977Z,85.33
2023-12-30T15:56:55.601Z,85.74
2023-12-30T15:59:22.143Z,85.64
2023-12-30T16:01:54.881Z,85.79
2023-12-30T16:04:21.369Z,85.83
2023-12-30T16:06:47.969Z,85.95
2023-12-30T16:09:14.449Z,85.90
2023-12-30T16:11:40.929Z,85.91
2023-12-30T16:14:09.347Z,85.85
2023-12-30T16:16:37.486Z,85.92
2023-12-30T16:19:04.107Z,86.10
2023-12-30T16:21:30.892Z,86.05
2023-12-30T16:23:57.419Z,86.03
2023-12-30T16:26:25.016Z,86.03
2023-12-30T16:28:51.483Z,85.81
2023-12-30T16:31:17.976Z,85.89
2023-12-30T16:33:46.714Z,85.88
2023-12-30T16:36:14.304Z,85.74
2023-12-30T16:38:40.887Z,85.72
2023-12-30T16:41:07.428Z,85.54
2023-12-30T16:43:36.987Z,85.55
2023-12-30T16:46:03.950Z,85.55
2023-12-30T16:48:30.532Z,85.59
2023-12-30T16:50:57.062Z,85.60
2023-12-30T16:53:23.540Z,85.38
2023-12-30T16:55:51.629Z,85.28
2023-12-30T16:58:19.799Z,85.03
2023-12-30T17:00:47.913Z,85.21
2023-12-30T17:03:15.087Z,85.00
2023-12-30T17:05:44.715Z,84.98
2023-12-30T17:08:11.264Z,85.16
2023-12-30T17:10:37.895Z,85.05
2023-12-30T17:13:04.731Z,84.79
2023-12-30T17:15:31.376Z,84.79
2023-12-30T17:17:57.835Z,84.37
2023-12-30T17:20:24.316Z,84.69
2023-12-30T17:22:50.791Z,84.36
2023-12-30T17:25:23.465Z,84.01
2023-12-30T17:27:50.043Z,83.62
2023-12-30T17:30:16.565Z,83.91
2023-12-30T17:32:43.177Z,83.90
2023-12-30T17:35:09.794Z,83.74
2023-12-30T17:37:37.325Z,83.56
2023-12-30T17:40:05.163Z,83.58
2023-12-30T17:42:31.658Z,83.46
2023-12-30T17:44:58.098Z,83.40
2023-12-30T17:47:24.565Z,83.45
2023-12-30T17:49:51.085Z,83.42
2023-12-30T17:52:17.651Z,83.47
2023-12-30T17:54:44.189Z,83.52
2023-12-30T17:57:10.774Z,83.33
2023-12-30T17:59:37.173Z,83.23
2023-12-30T18:02:03.689Z,83.31
2023-12-30T18:04:30.223Z,83.35
2023-12-30T18:06:56.742Z,82.89
2023-12-30T18:09:23.266Z,83.15
2023-12-30T18:11:49.818Z,83.09
2023-12-30T18:14:18.752Z,83.05
2023-12-30T18:16:45.280Z,82.86
2023-12-30T18:19:12.492Z,82.76
2023-12-30T18:21:39.169Z,82.80
2023-12-30T18:24:05.966Z,82.99
2023-12-30T18:26:32.435Z,82.85
2023-12-30T18:28:58.970Z,83.11
2023-12-30T18:31:25.432Z,83.27
2023-12-30T18:33:51.997Z,83.49
2023-12-30T18:36:18.682Z,83.59
2023-12-30T18:38:45.165Z,83.54
2023-12-30T18:41:11.634Z,83.53
2023-12-30T18:43:38.616Z,83.57
2023-12-30T18:46:05.113Z,83.81
2023-12-30T18:48:31.663Z,83.48
2023-12-30T18:50:58.296Z,83.70
2023-12-30T18:53:24.823Z,83.81
2023-12-30T18:55:51.436Z,83.75
2023-12-30T18:58:18.005Z,83.74
2023-12-30T19:00:44.743Z,83.77
2023-12-30T19:03:11.435Z,83.79
2023-12-30T19:05:38.253Z,83.67
2023-12-30T19:08:05.053Z,83.73
2023-12-30T19:10:31.508Z,83.73
2023-12-30T19:12:58.541Z,83.51
2023-12-30T19:15:25.228Z,83.74
2023-12-30T19:17:51.857Z,83.58
2023-12-30T19:20:18.396Z,83.67
2023-12-30T19:22:46.136Z,83.80
2023-12-30T19:25:12.992Z,83.89
2023-12-30T19:27:39.530Z,83.85
2023-12-30T19:30:06.720Z,83.93
2023-12-30T19:32:33.286Z,84.15
2023-12-30T19:35:01.024Z,84.11
2023-12-30T19:37:28.045Z,83.90
2023-12-30T19:39:54.540Z,84.32
2023-12-30T19:42:21.005Z,84.30
2023-12-30T19:44:47.449Z,84.14
2023-12-30T19:47:14.214Z,83.68
2023-12-30T19:49:40.771Z,83.99
2023-12-30T19:52:07.246Z,84.38
2023-12-30T19:54:33.778Z,84.49
2023-12-30T19:57:00.309Z,84.41
2023-12-30T19:59:27.253Z,84.63
2023-12-30T20:01:53.807Z,84.65
2023-12-30T20:04:20.505Z,84.95
2023-12-30T20:06:48.904Z,85.06
2023-12-30T20:09:16.058Z,85.11
2023-12-30T20:11:42.558Z,85.34
2023-12-30T20:14:09.067Z,85.08
2023-12-30T20:16:35.545Z,85.06
2023-12-30T20:19:02.123Z,85.28
2023-12-30T20:21:28.613Z,85.37
2023-12-30T20:23:55.026Z,85.33
2023-12-30T20:26:21.457Z,85.60
2023-12-30T20:28:47.932Z,85.77
2023-12-30T20:31:18.343Z,86.13
2023-12-30T20:33:45.440Z,86.13
2023-12-30T20:36:19.859Z,86.33
2023-12-30T20:38:46.406Z,86.47
2023-12-30T20:41:13.050Z,86.35
2023-12-30T20:43:39.548Z,86.39
2023-12-30T20:46:09.858Z,86.68
2023-12-30T20:48:42.479Z,86.70
2023-12-30T20:51:09.017Z,86.75
2023-12-30T20:53:35.557Z,87.13
2023-12-30T20:56:03.055Z,87.33
2023-12-30T20:58:30.813Z,87.66
2023-12-30T21:00:57.396Z,87.65
2023-12-30T21:03:23.910Z,87.55
2023-12-30T21:05:52.744Z,87.90
2023-12-30T21:08:19.352Z,87.74
2023-12-30T21:10:45.892Z,88.24
2023-12-30T21:13:12.427Z,88.32
2023-12-30T21:15:38.838Z,88.11
2023-12-30T21:18:05.721Z,88.40
2023-12-30T21:20:32.225Z,88.65
2023-12-30T21:22:58.741Z,88.53
2023-12-30T21:25:27.515Z,88.47
2023-12-30T21:27:54.495Z,88.88
2023-12-30T21:30:22.808Z,88.68
2023-12-30T21:32:50.628Z,88.64
2023-12-30T21:35:19.696Z,88.72
2023-12-30T21:37:54.080Z,88.61
2023-12-30T21:40:20.705Z,88.93
2023-12-30T21:42:47.425Z,88.70
2023-12-30T21:45:14.978Z,88.79
2023-12-30T21:47:42.920Z,88.94
2023-12-30T21:50:09.981Z,88.99
2023-12-30T21:52:38.878Z,88.75
2023-12-30T21:55:06.700Z,88.79
2023-12-30T21:57:33.356Z,88.75
2023-12-30T22:00:00.738Z,88.84
2023-12-30T22:02:28.344Z,88.63
2023-12-30T22:04:54.934Z,88.67
2023-12-30T22:07:21.577Z,88.87
2023-12-30T22:09:48.522Z,89.14
2023-12-30T22:12:15.016Z,88.46
2023-12-30T22:14:41.409Z,88.71
2023-12-30T22:17:11.285Z,89.01
2023-12-30T22:19:38.107Z,88.69
2023-12-30T22:22:04.800Z,89.13
2023-12-30T22:24:31.347Z,89.81
2023-12-30T22:26:57.873Z,89.19
2023-12-30T22:29:24.368Z,89.53
2023-12-30T22:31:50.990Z,89.19
2023-12-30T22:34:17.473Z,89.54
2023-12-30T22:36:43.981Z,89.47
2023-12-30T22:39:12.013Z,89.46
2023-12-30T22:41:38.825Z,89.70
2023-12-30T22:44:05.466Z,89.82
2023-12-30T22:46:32.050Z,90.08
2023-12-30T22:48:58.612Z,90.09
2023-12-30T22:51:25.152Z,90.39
2023-12-30T22:53:52.209Z,90.43
2023-12-30T22:56:18.718Z,90.05
2023-12-30T22:58:46.258Z,90.83
2023-12-30T23:01:13.451Z,90.47
2023-12-30T23:03:40.391Z,90.91
2023-12-30T23:06:07.076Z,90.94
2023-12-30T23:08:33.643Z,91.03
2023-12-30T23:11:00.141Z,90.79
2023-12-30T23:13:26.720Z,90.83
2023-12-30T23:15:54.562Z,90.98
2023-12-30T23:18:21.160Z,90.84
2023-12-30T23:20:47.654Z,90.53
2023-12-30T23:23:14.086Z,90.85
2023-12-30T23:25:40.524Z,90.53
2023-12-30T23:28:07.029Z,90.66
2023-12-30T23:30:33.601Z,90.59
2023-12-30T23:33:00.200Z,90.60
2023-12-30T23:35:26.838Z,90.70
2023-12-30T23:37:53.415Z,90.46
2023-12-30T23:40:20.707Z,90.40
2023-12-30T23:42:47.202Z,90.70
2023-12-30T23:45:13.655Z,90.33
2023-12-30T23:47:40.181Z,90.29
2023-12-30T23:50:06.780Z,90.51
2023-12-30T23:52:33.421Z,90.24
2023-12-30T23:55:00.011Z,90.10
2023-12-30T23:57:26.495Z,90.05
2023-12-30T23:59:52.961Z,90.33
